createdAt,value
2023-05-09T00:00:25.723Z,33.03
2023-05-09T00:02:52.184Z,33.21
2023-05-09T00:05:18.525Z,33.55
2023-05-09T00:07:44.900Z,33.57
2023-05-09T00:10:11.368Z,33.31
2023-05-09T00:12:37.669Z,33.12
2023-05-09T00:15:04.019Z,32.83
2023-05-09T00:17:30.453Z,32.81
2023-05-09T00:19:56.762Z,33.28
2023-05-09T00:22:23.112Z,33.28
2023-05-09T00:24:49.447Z,33.51
2023-05-09T00:27:15.784Z,33.55
2023-05-09T00:29:42.176Z,33.60
2023-05-09T00:32:08.605Z,33.64
2023-05-09T00:34:35.031Z,33.68
2023-05-09T00:37:01.422Z,33.48
2023-05-09T00:39:27.765Z,33.77
2023-05-09T00:41:54.076Z,33.36
2023-05-09T00:44:20.479Z,33.49
2023-05-09T00:46:46.812Z,33.66
2023-05-09T00:49:13.211Z,33.48
2023-05-09T00:51:39.551Z,33.30
2023-05-09T00:54:08.400Z,33.34
2023-05-09T00:56:35.474Z,33.46
2023-05-09T00:59:01.859Z,33.52
2023-05-09T01:01:28.449Z,33.30
2023-05-09T01:03:54.827Z,33.32
2023-05-09T01:06:21.288Z,33.68
2023-05-09T01:08:47.623Z,33.32
2023-05-09T01:11:14.023Z,33.36
2023-05-09T01:13:40.645Z,33.36
2023-05-09T01:16:06.970Z,33.43
2023-05-09T01:18:33.306Z,33.35
2023-05-09T01:20:59.695Z,33.71
2023-05-09T01:23:26.023Z,33.32
2023-05-09T01:25:52.335Z,33.41
2023-05-09T01:28:18.773Z,33.81
2023-05-09T01:30:45.072Z,33.50
2023-05-09T01:33:11.410Z,33.52
2023-05-09T01:35:37.891Z,33.80
2023-05-09T01:38:04.229Z,33.59
2023-05-09T01:40:30.564Z,34.22
2023-05-09T01:42:56.923Z,34.16
2023-05-09T01:45:23.732Z,34.21
2023-05-09T01:47:50.184Z,34.32
2023-05-09T01:50:16.924Z,34.00
2023-05-09T01:52:43.356Z,34.04
2023-05-09T01:55:09.676Z,34.38
2023-05-09T01:57:36.061Z,34.18
2023-05-09T02:00:02.396Z,34.07
2023-05-09T02:02:39.272Z,34.40
2023-05-09T02:05:05.814Z,33.95
2023-05-09T02:07:32.136Z,34.15
2023-05-09T02:09:58.512Z,34.25
2023-05-09T02:12:24.863Z,33.97
2023-05-09T02:14:51.196Z,34.35
2023-05-09T02:17:17.583Z,34.11
2023-05-09T02:19:44.005Z,34.69
2023-05-09T02:22:10.326Z,34.45
2023-05-09T02:24:36.702Z,34.35
2023-05-09T02:27:03.048Z,34.27
2023-05-09T02:29:29.358Z,34.21
2023-05-09T02:31:55.748Z,34.72
2023-05-09T02:34:22.430Z,34.67
2023-05-09T02:36:48.775Z,34.59
2023-05-09T02:39:15.156Z,34.47
2023-05-09T02:41:41.474Z,34.50
2023-05-09T02:44:07.806Z,34.57
2023-05-09T02:46:34.353Z,34.63
2023-05-09T02:49:00.762Z,34.47
2023-05-09T02:51:27.873Z,34.36
2023-05-09T02:53:54.249Z,34.45
2023-05-09T02:56:20.611Z,34.77
2023-05-09T02:58:46.936Z,34.45
2023-05-09T03:01:13.428Z,34.53
2023-05-09T03:03:40.008Z,34.55
2023-05-09T03:06:06.629Z,34.59
2023-05-09T03:08:32.977Z,34.64
2023-05-09T03:10:59.348Z,34.62
2023-05-09T03:13:25.939Z,34.61
2023-05-09T03:15:52.468Z,34.62
2023-05-09T03:18:18.837Z,34.86
2023-05-09T03:20:45.268Z,35.04
2023-05-09T03:23:11.951Z,34.61
2023-05-09T03:25:38.367Z,34.65
2023-05-09T03:28:05.698Z,34.74
2023-05-09T03:30:32.107Z,34.84
2023-05-09T03:32:59.042Z,34.77
2023-05-09T03:35:25.530Z,34.77
2023-05-09T03:37:54.193Z,35.13
2023-05-09T03:40:20.572Z,35.36
2023-05-09T03:42:53.302Z,35.74
2023-05-09T03:45:19.899Z,35.98
2023-05-09T03:47:47.169Z,35.88
2023-05-09T03:50:13.958Z,35.95
2023-05-09T03:52:40.519Z,35.93
2023-05-09T03:55:06.958Z,35.61
2023-05-09T03:57:35.129Z,35.66
2023-05-09T04:00:01.619Z,36.13
2023-05-09T04:02:28.162Z,36.44
2023-05-09T04:04:54.725Z,36.23
2023-05-09T04:07:22.745Z,36.50
2023-05-09T04:09:49.217Z,36.05
2023-05-09T04:12:15.853Z,36.26
2023-05-09T04:14:42.345Z,37.14
2023-05-09T04:17:08.979Z,37.19
2023-05-09T04:19:35.407Z,37.00
2023-05-09T04:22:02.028Z,37.14
2023-05-09T04:24:28.638Z,36.97
2023-05-09T04:26:55.028Z,37.22
2023-05-09T04:29:23.874Z,37.12
2023-05-09T04:31:53.705Z,37.84
2023-05-09T04:34:23.560Z,38.37
2023-05-09T04:36:50.214Z,38.44
2023-05-09T04:39:16.786Z,38.54
2023-05-09T04:41:52.692Z,38.30
2023-05-09T04:44:19.425Z,38.16
2023-05-09T04:46:46.138Z,37.71
2023-05-09T04:49:12.670Z,37.55
2023-05-09T04:51:39.107Z,37.29
2023-05-09T04:54:05.603Z,36.99
2023-05-09T04:56:35.612Z,36.06
2023-05-09T04:59:02.232Z,35.66
2023-05-09T05:01:29.319Z,35.24
2023-05-09T05:03:56.380Z,35.39
2023-05-09T05:06:22.845Z,34.77
2023-05-09T05:08:49.242Z,34.34
2023-05-09T05:11:15.660Z,34.10
2023-05-09T05:13:42.156Z,33.96
2023-05-09T05:16:10.366Z,33.95
2023-05-09T05:18:36.785Z,33.71
2023-05-09T05:21:03.804Z,32.90
2023-05-09T05:23:30.136Z,33.02
2023-05-09T05:25:56.515Z,33.10
2023-05-09T05:28:23.114Z,32.88
2023-05-09T05:30:49.484Z,32.27
2023-05-09T05:33:15.868Z,32.19
2023-05-09T05:35:42.951Z,32.31
2023-05-09T05:38:09.967Z,32.05
2023-05-09T05:40:36.820Z,31.33
2023-05-09T05:43:05.197Z,31.22
2023-05-09T05:45:33.255Z,30.72
2023-05-09T05:48:02.734Z,30.46
2023-05-09T05:50:30.775Z,29.99
2023-05-09T05:52:57.232Z,30.00
2023-05-09T05:55:23.655Z,29.22
2023-05-09T05:57:50.259Z,27.66
2023-05-09T06:00:16.612Z,27.98
2023-05-09T06:02:47.979Z,28.40
2023-05-09T06:05:22.159Z,27.99
2023-05-09T06:07:49.915Z,28.54
2023-05-09T06:10:16.323Z,28.46
2023-05-09T06:12:43.984Z,28.68
2023-05-09T06:15:10.489Z,28.56
2023-05-09T06:17:40.696Z,28.63
2023-05-09T06:20:07.171Z,28.54
2023-05-09T06:22:33.631Z,28.24
2023-05-09T06:25:00.022Z,28.54
2023-05-09T06:27:26.455Z,28.92
2023-05-09T06:29:52.937Z,28.97
2023-05-09T06:32:19.313Z,28.48
2023-05-09T06:34:45.725Z,27.33
2023-05-09T06:37:12.168Z,27.42
2023-05-09T06:39:38.563Z,27.59
2023-05-09T06:42:04.943Z,27.58
2023-05-09T06:44:33.607Z,27.47
2023-05-09T06:46:59.961Z,27.38
2023-05-09T06:49:26.325Z,27.33
2023-05-09T06:51:52.712Z,27.07
2023-05-09T06:54:19.108Z,26.92
2023-05-09T06:56:45.472Z,26.83
2023-05-09T06:59:11.879Z,26.55
2023-05-09T07:01:38.272Z,26.43
2023-05-09T07:04:04.705Z,26.50
2023-05-09T07:06:31.113Z,26.30
2023-05-09T07:08:57.474Z,25.80
2023-05-09T07:11:23.862Z,26.19
2023-05-09T07:13:50.302Z,25.90
2023-05-09T07:16:16.706Z,25.85
2023-05-09T07:18:43.066Z,25.35
2023-05-09T07:21:09.485Z,25.44
2023-05-09T07:23:35.838Z,25.27
2023-05-09T07:26:02.226Z,25.24
2023-05-09T07:28:28.627Z,25.04
2023-05-09T07:30:54.978Z,25.00
2023-05-09T07:33:21.301Z,24.99
2023-05-09T07:35:47.723Z,24.58
2023-05-09T07:38:14.061Z,24.74
2023-05-09T07:40:40.398Z,24.31
2023-05-09T07:43:06.946Z,23.88
2023-05-09T07:45:33.368Z,22.12
2023-05-09T07:47:59.925Z,22.47
2023-05-09T07:50:26.430Z,23.22
2023-05-09T07:52:52.858Z,23.22
2023-05-09T07:55:21.689Z,23.30
2023-05-09T07:57:48.093Z,23.71
2023-05-09T08:00:14.479Z,23.53
2023-05-09T08:02:41.341Z,23.55
2023-05-09T08:05:07.804Z,23.65
2023-05-09T08:07:34.192Z,23.69
2023-05-09T08:10:00.556Z,23.73
2023-05-09T08:12:26.966Z,23.87
2023-05-09T08:14:53.383Z,23.67
2023-05-09T08:17:19.829Z,23.22
2023-05-09T08:19:46.334Z,23.60
2023-05-09T08:22:12.714Z,23.80
2023-05-09T08:24:39.154Z,24.02
2023-05-09T08:27:05.555Z,23.75
2023-05-09T08:29:31.915Z,23.89
2023-05-09T08:31:58.348Z,24.29
2023-05-09T08:34:24.774Z,24.38
2023-05-09T08:36:51.222Z,24.17
2023-05-09T08:39:17.616Z,24.58
2023-05-09T08:41:44.009Z,24.57
2023-05-09T08:44:10.577Z,24.66
2023-05-09T08:46:36.965Z,24.41
2023-05-09T08:49:03.434Z,24.29
2023-05-09T08:51:29.832Z,24.44
2023-05-09T08:53:56.244Z,24.38
2023-05-09T08:56:22.655Z,24.51
2023-05-09T08:58:49.068Z,24.45
2023-05-09T09:01:15.490Z,24.71
2023-05-09T09:03:42.005Z,24.59
2023-05-09T09:06:08.382Z,24.43
2023-05-09T09:08:34.790Z,24.36
2023-05-09T09:11:01.233Z,23.99
2023-05-09T09:13:27.748Z,23.95
2023-05-09T09:15:54.221Z,24.22
2023-05-09T09:18:20.771Z,24.42
2023-05-09T09:20:47.252Z,24.53
2023-05-09T09:23:13.681Z,24.33
2023-05-09T09:25:40.072Z,24.52
2023-05-09T09:28:06.531Z,24.25
2023-05-09T09:30:32.964Z,24.39
2023-05-09T09:32:59.482Z,24.42
2023-05-09T09:35:25.911Z,24.25
2023-05-09T09:37:52.306Z,24.46
2023-05-09T09:40:18.717Z,24.07
2023-05-09T09:42:45.099Z,24.13
2023-05-09T09:45:11.502Z,24.20
2023-05-09T09:47:38.003Z,24.08
2023-05-09T09:50:04.401Z,24.27
2023-05-09T09:52:30.775Z,24.23
2023-05-09T09:54:57.212Z,24.51
2023-05-09T09:57:23.621Z,24.68
2023-05-09T09:59:50.017Z,24.62
2023-05-09T10:02:16.439Z,24.99
2023-05-09T10:04:42.818Z,25.03
2023-05-09T10:07:10.580Z,24.01
2023-05-09T10:09:38.218Z,24.63
2023-05-09T10:12:04.787Z,25.22
2023-05-09T10:14:32.445Z,25.59
2023-05-09T10:17:00.129Z,25.97
2023-05-09T10:19:26.605Z,25.86
2023-05-09T10:21:52.953Z,26.33
2023-05-09T10:24:19.332Z,25.84
2023-05-09T10:26:45.740Z,25.75
2023-05-09T10:29:12.120Z,25.93
2023-05-09T10:31:38.596Z,25.81
2023-05-09T10:34:05.246Z,25.42
2023-05-09T10:36:31.862Z,25.29
2023-05-09T10:38:58.336Z,24.92
2023-05-09T10:41:24.664Z,25.17
2023-05-09T10:43:51.019Z,25.13
2023-05-09T10:46:17.510Z,24.27
2023-05-09T10:48:44.002Z,24.22
2023-05-09T10:51:10.601Z,24.79
2023-05-09T10:53:37.035Z,25.15
2023-05-09T10:56:03.362Z,24.91
2023-05-09T10:58:29.728Z,25.03
2023-05-09T11:00:57.263Z,24.95
2023-05-09T11:03:23.986Z,24.89
2023-05-09T11:05:50.523Z,24.61
2023-05-09T11:08:16.936Z,24.64
2023-05-09T11:10:43.320Z,24.80
2023-05-09T11:13:09.725Z,24.45
2023-05-09T11:15:36.233Z,24.53
2023-05-09T11:18:02.668Z,23.97
2023-05-09T11:20:29.060Z,23.97
2023-05-09T11:22:55.468Z,22.36
2023-05-09T11:25:21.835Z,23.21
2023-05-09T11:27:48.188Z,22.96
2023-05-09T11:30:14.790Z,22.43
2023-05-09T11:32:41.505Z,22.50
2023-05-09T11:35:07.883Z,23.04
2023-05-09T11:37:34.371Z,22.94
2023-05-09T11:40:00.786Z,22.72
2023-05-09T11:42:27.133Z,23.05
2023-05-09T11:44:53.623Z,23.05
2023-05-09T11:47:19.984Z,23.07
2023-05-09T11:49:46.318Z,23.01
2023-05-09T11:52:12.795Z,22.91
2023-05-09T11:54:39.156Z,23.64
2023-05-09T11:57:05.535Z,23.96
2023-05-09T11:59:32.055Z,22.70
2023-05-09T12:01:58.444Z,23.54
2023-05-09T12:04:24.898Z,23.15
2023-05-09T12:06:51.368Z,22.07
2023-05-09T12:09:17.725Z,21.50
2023-05-09T12:11:44.084Z,21.14
2023-05-09T12:14:13.533Z,21.71
2023-05-09T12:16:40.068Z,21.65
2023-05-09T12:19:06.468Z,22.50
2023-05-09T12:21:32.885Z,22.56
2023-05-09T12:23:59.271Z,23.01
2023-05-09T12:26:25.577Z,23.07
2023-05-09T12:28:51.965Z,23.02
2023-05-09T12:31:18.372Z,22.83
2023-05-09T12:33:44.795Z,22.80
2023-05-09T12:36:11.367Z,22.76
2023-05-09T12:38:37.788Z,22.92
2023-05-09T12:41:04.189Z,22.81
2023-05-09T12:43:30.606Z,22.64
2023-05-09T12:45:56.948Z,22.73
2023-05-09T12:48:23.296Z,22.59
2023-05-09T12:50:49.728Z,22.46
2023-05-09T12:53:16.061Z,22.56
2023-05-09T12:55:42.440Z,22.46
2023-05-09T12:58:08.850Z,22.40
2023-05-09T13:00:35.250Z,21.98
2023-05-09T13:03:01.757Z,22.22
2023-05-09T13:05:28.264Z,22.46
2023-05-09T13:07:54.689Z,22.38
2023-05-09T13:10:21.097Z,22.42
2023-05-09T13:12:47.513Z,22.30
2023-05-09T13:15:14.057Z,22.65
2023-05-09T13:17:40.914Z,22.71
2023-05-09T13:20:07.391Z,22.75
2023-05-09T13:22:33.847Z,22.81
2023-05-09T13:25:00.372Z,21.75
2023-05-09T13:27:26.834Z,21.78
2023-05-09T13:29:53.152Z,21.77
2023-05-09T13:32:19.509Z,21.58
2023-05-09T13:34:45.932Z,21.89
2023-05-09T13:37:12.268Z,21.96
2023-05-09T13:39:38.606Z,22.11
2023-05-09T13:42:05.104Z,22.11
2023-05-09T13:44:31.524Z,21.92
2023-05-09T13:46:57.925Z,21.97
2023-05-09T13:49:24.394Z,21.67
2023-05-09T13:51:50.752Z,21.94
2023-05-09T13:54:17.190Z,21.69
2023-05-09T13:56:43.724Z,21.51
2023-05-09T13:59:10.185Z,21.56
2023-05-09T14:01:36.745Z,21.39
2023-05-09T14:04:03.415Z,21.33
2023-05-09T14:06:29.903Z,21.37
2023-05-09T14:08:56.394Z,21.58
2023-05-09T14:11:23.013Z,21.60
2023-05-09T14:13:49.492Z,21.20
2023-05-09T14:16:15.854Z,21.35
2023-05-09T14:18:42.347Z,21.36
2023-05-09T14:21:08.696Z,21.32
2023-05-09T14:23:35.035Z,21.48
2023-05-09T14:26:01.646Z,21.21
2023-05-09T14:28:28.178Z,21.58
2023-05-09T14:30:54.645Z,21.24
2023-05-09T14:33:21.199Z,21.20
2023-05-09T14:35:47.697Z,21.19
2023-05-09T14:38:14.124Z,21.48
2023-05-09T14:40:40.504Z,21.29
2023-05-09T14:43:06.863Z,21.15
2023-05-09T14:45:33.226Z,21.36
2023-05-09T14:47:59.661Z,21.45
2023-05-09T14:50:26.003Z,21.20
2023-05-09T14:52:52.313Z,21.25
2023-05-09T14:55:18.671Z,21.51
2023-05-09T14:57:44.987Z,21.32
2023-05-09T15:00:20.633Z,21.11
2023-05-09T15:02:48.697Z,21.17
2023-05-09T15:05:15.049Z,21.14
2023-05-09T15:07:41.352Z,21.50
2023-05-09T15:10:07.908Z,21.26
2023-05-09T15:12:34.264Z,21.27
2023-05-09T15:15:00.614Z,21.44
2023-05-09T15:17:26.970Z,21.14
2023-05-09T15:19:53.302Z,21.39
2023-05-09T15:22:19.619Z,21.17
2023-05-09T15:24:46.038Z,21.27
2023-05-09T15:27:12.376Z,21.18
2023-05-09T15:29:38.689Z,21.33
2023-05-09T15:32:05.119Z,21.37
2023-05-09T15:34:31.461Z,21.20
2023-05-09T15:36:57.796Z,21.37
2023-05-09T15:39:24.193Z,21.22
2023-05-09T15:41:50.595Z,21.46
2023-05-09T15:44:16.932Z,21.43
2023-05-09T15:46:43.515Z,21.26
2023-05-09T15:49:09.874Z,21.05
2023-05-09T15:51:36.219Z,20.98
2023-05-09T15:54:02.577Z,21.00
2023-05-09T15:56:28.903Z,21.04
2023-05-09T15:58:55.245Z,21.17
2023-05-09T16:01:21.710Z,21.06
2023-05-09T16:03:48.192Z,21.08
2023-05-09T16:06:14.860Z,20.87
2023-05-09T16:08:41.266Z,20.93
2023-05-09T16:11:07.625Z,21.01
2023-05-09T16:13:35.744Z,21.10
2023-05-09T16:16:02.603Z,21.04
2023-05-09T16:18:28.952Z,21.21
2023-05-09T16:20:55.283Z,21.19
2023-05-09T16:23:21.766Z,20.87
2023-05-09T16:25:48.157Z,20.85
2023-05-09T16:28:14.496Z,21.28
2023-05-09T16:30:40.859Z,21.00
2023-05-09T16:33:07.326Z,20.97
2023-05-09T16:35:33.760Z,20.96
2023-05-09T16:38:00.178Z,20.88
2023-05-09T16:40:26.510Z,20.75
2023-05-09T16:42:52.849Z,21.13
2023-05-09T16:45:19.319Z,21.09
2023-05-09T16:47:45.762Z,20.88
2023-05-09T16:50:12.151Z,20.93
2023-05-09T16:52:38.648Z,20.84
2023-05-09T16:55:05.002Z,21.19
2023-05-09T16:57:31.352Z,20.97
2023-05-09T16:59:57.719Z,21.24
2023-05-09T17:02:24.065Z,21.14
2023-05-09T17:04:50.486Z,21.17
2023-05-09T17:07:16.912Z,21.34
2023-05-09T17:09:43.285Z,21.37
2023-05-09T17:12:09.620Z,21.08
2023-05-09T17:14:36.069Z,21.47
2023-05-09T17:17:02.588Z,21.21
2023-05-09T17:19:28.992Z,21.08
2023-05-09T17:21:55.471Z,21.46
2023-05-09T17:24:21.773Z,21.32
2023-05-09T17:26:48.095Z,21.37
2023-05-09T17:29:14.522Z,21.31
2023-05-09T17:31:40.906Z,21.41
2023-05-09T17:34:07.233Z,21.49
2023-05-09T17:36:33.826Z,21.46
2023-05-09T17:39:00.172Z,21.86
2023-05-09T17:41:26.504Z,21.50
2023-05-09T17:43:52.868Z,21.63
2023-05-09T17:46:19.274Z,21.76
2023-05-09T17:48:45.599Z,21.86
2023-05-09T17:51:11.998Z,21.89
2023-05-09T17:53:38.318Z,22.08
2023-05-09T17:56:04.647Z,22.12
2023-05-09T17:58:31.013Z,21.85
2023-05-09T18:00:57.322Z,22.21
2023-05-09T18:03:23.725Z,22.26
2023-05-09T18:05:50.221Z,22.16
2023-05-09T18:08:16.542Z,22.45
2023-05-09T18:10:42.859Z,22.25
2023-05-09T18:13:09.335Z,22.39
2023-05-09T18:15:35.677Z,22.43
2023-05-09T18:18:02.035Z,22.39
2023-05-09T18:20:28.426Z,22.44
2023-05-09T18:22:54.750Z,22.44
2023-05-09T18:25:21.064Z,22.91
2023-05-09T18:27:47.435Z,22.82
2023-05-09T18:30:13.819Z,23.05
2023-05-09T18:32:40.296Z,22.87
2023-05-09T18:35:06.673Z,22.60
2023-05-09T18:37:33.012Z,22.66
2023-05-09T18:39:59.333Z,22.21
2023-05-09T18:42:25.715Z,22.78
2023-05-09T18:44:52.046Z,22.65
2023-05-09T18:47:18.397Z,22.98
2023-05-09T18:49:44.963Z,22.69
2023-05-09T18:52:11.274Z,22.97
2023-05-09T18:54:37.596Z,23.25
2023-05-09T18:57:03.965Z,23.34
2023-05-09T18:59:30.292Z,23.20
2023-05-09T19:01:56.638Z,23.11
2023-05-09T19:04:23.135Z,23.34
2023-05-09T19:06:49.559Z,23.24
2023-05-09T19:09:15.897Z,23.52
2023-05-09T19:11:42.278Z,23.51
2023-05-09T19:14:08.699Z,23.42
2023-05-09T19:16:35.116Z,23.61
2023-05-09T19:19:01.542Z,23.56
2023-05-09T19:21:27.868Z,23.76
2023-05-09T19:23:54.194Z,24.04
2023-05-09T19:26:20.609Z,23.89
2023-05-09T19:28:46.963Z,24.01
2023-05-09T19:31:13.317Z,24.05
2023-05-09T19:33:39.680Z,24.04
2023-05-09T19:36:06.037Z,24.08
2023-05-09T19:38:32.355Z,24.20
2023-05-09T19:40:58.716Z,24.37
2023-05-09T19:43:25.173Z,24.26
2023-05-09T19:45:51.507Z,24.29
2023-05-09T19:48:17.933Z,24.32
2023-05-09T19:50:44.250Z,24.43
2023-05-09T19:53:10.580Z,24.55
2023-05-09T19:55:36.938Z,24.59
2023-05-09T19:58:03.281Z,24.52
2023-05-09T20:00:29.633Z,24.58
2023-05-09T20:02:56.074Z,24.85
2023-05-09T20:05:22.687Z,24.86
2023-05-09T20:08:09.664Z,24.67
2023-05-09T20:10:35.967Z,24.85
2023-05-09T20:13:02.296Z,24.86
2023-05-09T20:15:28.711Z,24.82
2023-05-09T20:17:55.079Z,24.96
2023-05-09T20:20:21.415Z,24.93
2023-05-09T20:22:47.769Z,25.13
2023-05-09T20:25:14.100Z,25.13
2023-05-09T20:27:40.442Z,25.15
2023-05-09T20:30:06.833Z,25.06
2023-05-09T20:32:33.177Z,25.28
2023-05-09T20:34:59.521Z,25.37
2023-05-09T20:37:25.913Z,25.42
2023-05-09T20:39:52.294Z,25.44
2023-05-09T20:42:18.664Z,25.52
2023-05-09T20:44:45.074Z,25.50
2023-05-09T20:47:11.400Z,25.55
2023-05-09T20:49:37.712Z,25.55
2023-05-09T20:52:04.112Z,25.85
2023-05-09T20:54:30.430Z,25.91
2023-05-09T20:56:56.742Z,25.66
2023-05-09T20:59:23.094Z,26.09
2023-05-09T21:01:49.403Z,26.25
2023-05-09T21:04:15.787Z,26.20
2023-05-09T21:06:42.171Z,26.38
2023-05-09T21:09:08.477Z,26.33
2023-05-09T21:11:34.777Z,26.33
2023-05-09T21:14:01.131Z,26.65
2023-05-09T21:16:27.446Z,26.63
2023-05-09T21:18:53.773Z,26.62
2023-05-09T21:21:20.178Z,26.53
2023-05-09T21:23:46.485Z,26.70
2023-05-09T21:26:12.803Z,26.72
2023-05-09T21:28:39.160Z,26.87
2023-05-09T21:31:05.560Z,26.84
2023-05-09T21:33:31.929Z,26.76
2023-05-09T21:35:58.300Z,26.81
2023-05-09T21:38:24.621Z,26.98
2023-05-09T21:40:50.929Z,27.11
2023-05-09T21:43:17.289Z,27.13
2023-05-09T21:45:43.610Z,27.27
2023-05-09T21:48:09.964Z,27.14
2023-05-09T21:50:36.343Z,27.06
2023-05-09T21:53:02.662Z,27.15
2023-05-09T21:55:28.977Z,27.21
2023-05-09T21:57:55.351Z,27.27
2023-05-09T22:00:21.663Z,27.27
2023-05-09T22:02:48.129Z,27.37
2023-05-09T22:05:14.555Z,27.40
2023-05-09T22:07:40.889Z,27.47
2023-05-09T22:10:07.216Z,27.42
2023-05-09T22:12:33.575Z,27.42
2023-05-09T22:14:59.889Z,27.33
2023-05-09T22:17:26.227Z,27.40
2023-05-09T22:19:52.612Z,27.50
2023-05-09T22:22:18.936Z,27.62
2023-05-09T22:24:45.240Z,27.65
2023-05-09T22:27:11.603Z,27.65
2023-05-09T22:29:37.977Z,27.68
2023-05-09T22:32:04.506Z,27.51
2023-05-09T22:34:30.975Z,27.72
2023-05-09T22:36:57.297Z,27.64
2023-05-09T22:39:25.006Z,27.90
2023-05-09T22:41:51.367Z,27.99
2023-05-09T22:44:17.681Z,28.01
2023-05-09T22:46:44.016Z,28.06
2023-05-09T22:49:10.388Z,28.10
2023-05-09T22:51:36.712Z,28.01
2023-05-09T22:54:03.115Z,28.13
2023-05-09T22:56:29.491Z,28.31
2023-05-09T22:58:55.847Z,28.25
2023-05-09T23:01:22.218Z,28.48
2023-05-09T23:03:48.677Z,28.42
2023-05-09T23:06:15.005Z,28.23
2023-05-09T23:08:41.395Z,28.33
2023-05-09T23:11:07.816Z,28.29
2023-05-09T23:13:34.282Z,28.66
2023-05-09T23:16:00.762Z,28.55
2023-05-09T23:18:27.317Z,28.71
2023-05-09T23:20:53.650Z,28.73
2023-05-09T23:23:19.966Z,28.62
2023-05-09T23:25:46.339Z,28.65
2023-05-09T23:28:12.671Z,28.83
2023-05-09T23:30:39.003Z,28.90
2023-05-09T23:33:05.389Z,29.04
2023-05-09T23:35:31.735Z,28.88
2023-05-09T23:37:58.054Z,29.01
2023-05-09T23:40:24.415Z,29.11
2023-05-09T23:42:50.734Z,29.04
2023-05-09T23:45:17.069Z,28.91
2023-05-09T23:47:43.480Z,29.14
2023-05-09T23:50:09.810Z,28.96
2023-05-09T23:52:36.143Z,29.17
2023-05-09T23:55:02.544Z,29.15
2023-05-09T23:57:28.875Z,29.26
2023-05-09T23:59:55.192Z,29.15
